createdAt,value
2022-08-07T00:00:52.573Z,14.90
2022-08-07T00:03:55.193Z,14.80
2022-08-07T00:06:56.940Z,14.80
2022-08-07T00:10:25.552Z,14.80
2022-08-07T00:13:26.891Z,14.70
2022-08-07T00:16:28.830Z,14.80
2022-08-07T00:19:59.873Z,14.70
2022-08-07T00:22:53.402Z,14.60
2022-08-07T00:25:59.291Z,14.80
2022-08-07T00:29:02.272Z,14.60
2022-08-07T00:32:06.734Z,14.60
2022-08-07T00:35:08.972Z,14.50
2022-08-07T00:38:10.645Z,14.50
2022-08-07T00:41:15.279Z,14.50
2022-08-07T00:44:17.227Z,14.50
2022-08-07T00:48:08.736Z,14.50
2022-08-07T00:50:43.723Z,14.40
2022-08-07T00:53:50.255Z,14.40
2022-08-07T00:56:57.199Z,14.40
2022-08-07T00:59:59.850Z,14.30
2022-08-07T01:03:01.623Z,14.30
2022-08-07T01:06:03.879Z,14.20
2022-08-07T01:09:05.612Z,14.20
2022-08-07T01:12:30.221Z,14.20
2022-08-07T01:15:35.678Z,14.10
2022-08-07T01:18:56.276Z,14.10
2022-08-07T01:21:59.245Z,14.00
2022-08-07T01:25:05.102Z,14.00
2022-08-07T01:28:07.063Z,14.10
2022-08-07T01:31:15.229Z,14.00
2022-08-07T01:34:19.545Z,14.00
2022-08-07T01:37:22.034Z,13.90
2022-08-07T01:40:26.084Z,14.00
2022-08-07T01:43:34.779Z,13.80
2022-08-07T01:46:41.245Z,13.90
2022-08-07T01:49:43.533Z,13.80
2022-08-07T01:52:54.032Z,13.80
2022-08-07T01:56:00.984Z,13.90
2022-08-07T01:59:15.765Z,13.70
2022-08-07T02:03:18.674Z,13.70
2022-08-07T02:06:31.325Z,13.70
2022-08-07T02:09:53.034Z,13.80
2022-08-07T02:13:05.605Z,13.60
2022-08-07T02:16:11.946Z,13.80
2022-08-07T02:20:05.156Z,13.80
2022-08-07T02:22:41.392Z,13.70
2022-08-07T02:26:30.635Z,13.70
2022-08-07T02:29:13.774Z,13.70
2022-08-07T02:32:16.922Z,13.70
2022-08-07T02:36:29.618Z,13.70
2022-08-07T02:38:50.840Z,13.60
2022-08-07T02:41:59.521Z,13.70
2022-08-07T02:45:51.904Z,13.60
2022-08-07T02:48:28.548Z,13.70
2022-08-07T02:51:49.801Z,13.60
2022-08-07T02:54:55.131Z,13.70
2022-08-07T02:58:04.177Z,13.50
2022-08-07T03:01:18.475Z,13.50
2022-08-07T03:04:22.971Z,13.60
2022-08-07T03:07:58.992Z,13.50
2022-08-07T03:10:49.181Z,13.50
2022-08-07T03:13:51.589Z,13.60
2022-08-07T03:16:59.876Z,13.50
2022-08-07T03:20:07.597Z,13.50
2022-08-07T03:23:18.965Z,13.50
2022-08-07T03:26:25.613Z,13.50
2022-08-07T03:29:51.231Z,13.50
2022-08-07T03:32:58.780Z,13.40
2022-08-07T03:36:01.261Z,13.30
2022-08-07T03:39:12.949Z,13.40
2022-08-07T03:42:17.178Z,13.30
2022-08-07T03:45:30.404Z,13.20
2022-08-07T03:48:34.405Z,13.30
2022-08-07T03:51:55.359Z,13.20
2022-08-07T03:55:07.447Z,13.10
2022-08-07T03:59:05.758Z,13.10
2022-08-07T04:01:33.954Z,13.00
2022-08-07T04:04:41.720Z,13.10
2022-08-07T04:07:47.962Z,13.10
2022-08-07T04:10:54.528Z,13.10
2022-08-07T04:14:37.091Z,12.90
2022-08-07T04:18:31.003Z,13.10
2022-08-07T04:21:00.546Z,13.30
2022-08-07T04:24:07.800Z,13.10
2022-08-07T04:27:20.606Z,13.10
2022-08-07T04:30:35.958Z,13.20
2022-08-07T04:33:46.872Z,13.20
2022-08-07T04:36:57.069Z,13.20
2022-08-07T04:39:59.086Z,13.30
2022-08-07T04:43:03.631Z,13.40
2022-08-07T04:47:03.919Z,13.40
2022-08-07T04:50:17.493Z,13.50
2022-08-07T04:54:01.330Z,13.60
2022-08-07T04:58:14.586Z,13.60
2022-08-07T05:00:51.861Z,13.60
2022-08-07T05:04:08.560Z,13.70
2022-08-07T05:07:30.497Z,13.80
2022-08-07T05:10:47.729Z,13.70
2022-08-07T05:14:52.441Z,13.70
2022-08-07T05:17:51.696Z,13.70
2022-08-07T05:20:49.221Z,13.80
2022-08-07T05:24:00.252Z,13.80
2022-08-07T05:27:03.564Z,13.80
2022-08-07T05:30:07.231Z,13.90
2022-08-07T05:33:18.172Z,14.00
2022-08-07T05:36:30.540Z,14.10
2022-08-07T05:40:14.269Z,14.50
2022-08-07T05:43:00.394Z,14.50
2022-08-07T05:46:02.964Z,14.60
2022-08-07T05:49:12.078Z,15.30
2022-08-07T05:52:14.622Z,15.50
2022-08-07T05:55:22.384Z,15.90
2022-08-07T05:58:36.394Z,16.40
2022-08-07T06:01:40.593Z,16.90
2022-08-07T06:04:50.690Z,17.20
2022-08-07T06:08:14.775Z,17.60
2022-08-07T06:11:15.220Z,18.00
2022-08-07T06:14:20.810Z,18.30
2022-08-07T06:17:23.501Z,18.60
2022-08-07T06:20:50.870Z,18.80
2022-08-07T06:24:46.053Z,19.00
2022-08-07T06:28:00.730Z,19.40
2022-08-07T06:30:51.839Z,19.60
2022-08-07T06:33:55.425Z,19.90
2022-08-07T06:36:59.500Z,20.10
2022-08-07T06:40:17.639Z,20.40
2022-08-07T06:43:26.806Z,20.70
2022-08-07T06:46:35.242Z,21.10
2022-08-07T06:49:51.032Z,21.40
2022-08-07T06:52:56.097Z,21.70
2022-08-07T06:56:00.825Z,21.80
2022-08-07T07:00:11.356Z,22.00
2022-08-07T07:02:53.336Z,22.20
2022-08-07T07:06:03.282Z,22.40
2022-08-07T07:09:24.300Z,22.50
2022-08-07T07:12:48.652Z,22.50
2022-08-07T07:16:00.237Z,22.60
2022-08-07T07:19:23.616Z,22.70
2022-08-07T07:22:36.322Z,22.90
2022-08-07T07:26:34.089Z,23.10
2022-08-07T07:29:38.865Z,23.30
2022-08-07T07:32:40.508Z,23.50
2022-08-07T07:36:03.889Z,23.70
2022-08-07T07:39:07.269Z,24.00
2022-08-07T07:42:13.277Z,24.00
2022-08-07T07:45:18.290Z,24.10
2022-08-07T07:48:35.789Z,24.30
2022-08-07T07:51:58.316Z,24.70
2022-08-07T07:55:04.243Z,25.10
2022-08-07T07:58:08.335Z,25.30
2022-08-07T08:02:04.810Z,25.50
2022-08-07T08:04:37.109Z,25.60
2022-08-07T08:07:42.425Z,25.80
2022-08-07T08:11:02.242Z,25.80
2022-08-07T08:14:05.745Z,25.90
2022-08-07T08:18:36.991Z,26.20
2022-08-07T08:20:36.544Z,26.40
2022-08-07T08:23:56.874Z,26.70
2022-08-07T08:27:10.354Z,26.80
2022-08-07T08:30:17.486Z,26.70
2022-08-07T08:33:24.777Z,26.90
2022-08-07T08:36:34.012Z,27.20
2022-08-07T08:39:39.328Z,27.20
2022-08-07T08:43:17.187Z,27.40
2022-08-07T08:46:28.807Z,27.80
2022-08-07T08:50:02.453Z,27.80
2022-08-07T08:53:20.270Z,28.10
2022-08-07T08:56:27.139Z,28.20
2022-08-07T08:59:42.285Z,28.20
2022-08-07T09:03:08.326Z,28.10
2022-08-07T09:06:18.091Z,28.00
2022-08-07T09:09:36.734Z,27.70
2022-08-07T09:12:53.012Z,27.70
2022-08-07T09:16:23.809Z,27.70
2022-08-07T09:19:57.387Z,28.20
2022-08-07T09:24:33.796Z,28.30
2022-08-07T09:27:09.131Z,28.10
2022-08-07T09:30:14.645Z,27.80
2022-08-07T09:33:57.724Z,27.90
2022-08-07T09:37:33.495Z,27.70
2022-08-07T09:41:07.964Z,27.20
2022-08-07T09:44:46.480Z,26.80
2022-08-07T09:48:29.950Z,26.50
2022-08-07T09:52:33.681Z,26.70
2022-08-07T09:56:06.635Z,26.70
2022-08-07T09:59:14.886Z,26.90
2022-08-07T10:04:05.777Z,26.90
2022-08-07T10:07:34.483Z,26.90
2022-08-07T10:11:59.980Z,26.90
2022-08-07T10:14:42.165Z,26.90
2022-08-07T10:18:10.644Z,27.00
2022-08-07T10:22:12.592Z,27.00
2022-08-07T10:25:06.030Z,26.70
2022-08-07T10:28:54.400Z,26.30
2022-08-07T10:32:36.532Z,26.30
2022-08-07T10:36:05.173Z,26.50
2022-08-07T10:40:03.251Z,26.30
2022-08-07T10:43:34.790Z,26.10
2022-08-07T10:47:01.799Z,26.00
2022-08-07T10:50:27.779Z,26.00
2022-08-07T10:53:48.409Z,25.90
2022-08-07T10:57:05.360Z,25.90
2022-08-07T11:00:39.579Z,25.80
2022-08-07T11:03:42.964Z,25.70
2022-08-07T11:07:15.050Z,25.80
2022-08-07T11:10:38.929Z,25.90
2022-08-07T11:14:45.853Z,25.80
2022-08-07T11:17:53.842Z,25.60
2022-08-07T11:21:14.198Z,25.50
2022-08-07T11:24:45.534Z,25.60
2022-08-07T11:28:04.093Z,25.80
2022-08-07T11:31:12.191Z,25.70
2022-08-07T11:34:42.721Z,25.70
2022-08-07T11:38:10.086Z,25.40
2022-08-07T11:41:18.228Z,25.40
2022-08-07T11:44:52.515Z,25.30
2022-08-07T11:48:29.569Z,25.30
2022-08-07T11:51:47.204Z,25.30
2022-08-07T11:55:13.008Z,25.30
2022-08-07T12:00:08.888Z,25.10
2022-08-07T12:02:59.674Z,24.80
2022-08-07T12:06:57.354Z,24.50
2022-08-07T12:10:13.342Z,24.50
2022-08-07T12:13:35.543Z,24.40
2022-08-07T12:17:04.338Z,24.40
2022-08-07T12:20:30.463Z,24.30
2022-08-07T12:24:07.416Z,24.20
2022-08-07T12:27:17.724Z,24.00
2022-08-07T12:30:34.886Z,23.80
2022-08-07T12:34:01.251Z,23.80
2022-08-07T12:37:02.063Z,23.90
2022-08-07T12:40:30.027Z,23.70
2022-08-07T12:44:04.233Z,23.80
2022-08-07T12:47:37.548Z,24.00
2022-08-07T12:51:17.072Z,23.90
2022-08-07T12:54:38.114Z,24.00
2022-08-07T12:58:01.118Z,24.00
2022-08-07T13:01:34.644Z,23.90
2022-08-07T13:05:01.770Z,23.70
2022-08-07T13:08:34.564Z,23.70
2022-08-07T13:12:03.287Z,23.60
2022-08-07T13:15:23.517Z,23.60
2022-08-07T13:18:50.727Z,23.60
2022-08-07T13:22:19.567Z,23.60
2022-08-07T13:25:30.027Z,23.60
2022-08-07T13:28:46.461Z,23.50
2022-08-07T13:32:00.047Z,23.50
2022-08-07T13:36:00.950Z,23.40
2022-08-07T13:38:56.963Z,23.40
2022-08-07T13:42:00.960Z,23.30
2022-08-07T13:46:07.200Z,23.30
2022-08-07T13:48:34.661Z,23.20
2022-08-07T13:52:05.155Z,23.20
2022-08-07T13:55:10.815Z,23.10
2022-08-07T13:58:36.863Z,23.10
2022-08-07T14:02:03.597Z,23.10
2022-08-07T14:05:12.327Z,23.10
2022-08-07T14:08:15.920Z,23.10
2022-08-07T14:11:21.689Z,23.10
2022-08-07T14:14:31.264Z,23.10
2022-08-07T14:18:15.896Z,23.00
2022-08-07T14:22:01.145Z,22.90
2022-08-07T14:24:51.316Z,22.90
2022-08-07T14:28:12.585Z,23.00
2022-08-07T14:31:16.362Z,23.00
2022-08-07T14:34:27.198Z,23.10
2022-08-07T14:37:36.272Z,23.20
2022-08-07T14:40:42.908Z,23.00
2022-08-07T14:43:55.205Z,23.00
2022-08-07T14:47:14.178Z,23.00
2022-08-07T14:54:08.614Z,22.90
2022-08-07T14:56:48.991Z,23.00
2022-08-07T15:00:03.641Z,23.00
2022-08-07T15:06:34.768Z,22.90
2022-08-07T15:09:59.190Z,22.80
2022-08-07T15:13:11.962Z,22.80
2022-08-07T15:16:31.199Z,22.80
2022-08-07T15:20:30.798Z,22.80
2022-08-07T15:23:01.318Z,22.80
2022-08-07T15:26:33.332Z,22.80
2022-08-07T15:30:08.531Z,22.70
2022-08-07T15:33:05.522Z,22.80
2022-08-07T15:36:57.488Z,22.80
2022-08-07T15:39:56.959Z,22.80
2022-08-07T15:43:53.605Z,22.70
2022-08-07T15:46:45.919Z,22.70
2022-08-07T15:53:51.877Z,22.70
2022-08-07T15:56:52.385Z,22.60
2022-08-07T15:59:56.634Z,22.60
2022-08-07T16:03:21.745Z,22.60
2022-08-07T16:06:39.353Z,22.50
2022-08-07T16:09:53.967Z,22.50
2022-08-07T16:13:57.353Z,22.50
2022-08-07T16:18:02.993Z,22.50
2022-08-07T16:22:02.049Z,22.50
2022-08-07T16:24:52.727Z,22.60
2022-08-07T16:30:07.090Z,22.60
2022-08-07T16:32:35.351Z,22.50
2022-08-07T16:35:58.270Z,22.50
2022-08-07T16:39:40.584Z,22.40
2022-08-07T16:43:18.135Z,22.40
2022-08-07T16:47:14.357Z,22.40
2022-08-07T16:50:37.128Z,22.40
2022-08-07T16:54:19.507Z,22.40
2022-08-07T16:58:02.034Z,22.30
2022-08-07T17:01:22.891Z,22.30
2022-08-07T17:04:57.817Z,22.30
2022-08-07T17:08:02.060Z,22.20
2022-08-07T17:11:14.298Z,22.20
2022-08-07T17:14:45.397Z,22.20
2022-08-07T17:17:47.772Z,22.10
2022-08-07T17:20:54.745Z,22.10
2022-08-07T17:24:23.826Z,22.10
2022-08-07T17:27:51.027Z,22.10
2022-08-07T17:31:16.250Z,22.00
2022-08-07T17:34:40.942Z,22.00
2022-08-07T17:38:33.554Z,22.00
2022-08-07T17:42:01.767Z,22.00
2022-08-07T17:45:20.161Z,21.90
2022-08-07T17:48:34.173Z,21.80
2022-08-07T17:51:59.641Z,21.80
2022-08-07T17:55:12.938Z,21.80
2022-08-07T17:58:30.503Z,21.80
2022-08-07T18:02:02.913Z,21.70
2022-08-07T18:05:21.495Z,21.70
2022-08-07T18:08:34.487Z,21.70
2022-08-07T18:12:17.988Z,21.60
2022-08-07T18:15:23.199Z,21.50
2022-08-07T18:18:45.210Z,21.50
2022-08-07T18:22:02.910Z,21.40
2022-08-07T18:25:39.403Z,21.40
2022-08-07T18:29:03.923Z,21.30
2022-08-07T18:32:09.073Z,21.20
2022-08-07T18:35:16.897Z,21.20
2022-08-07T18:38:55.184Z,21.10
2022-08-07T18:42:20.050Z,21.10
2022-08-07T18:45:44.400Z,21.00
2022-08-07T18:50:05.819Z,20.90
2022-08-07T18:52:54.185Z,20.80
2022-08-07T18:56:14.632Z,20.70
2022-08-07T18:59:59.274Z,20.70
2022-08-07T19:03:36.154Z,20.60
2022-08-07T19:06:56.731Z,20.50
2022-08-07T19:10:12.163Z,20.40
2022-08-07T19:13:24.340Z,20.30
2022-08-07T19:17:04.536Z,20.20
2022-08-07T19:20:29.236Z,20.20
2022-08-07T19:23:58.636Z,20.10
2022-08-07T19:28:58.268Z,20.00
2022-08-07T19:30:58.758Z,19.90
2022-08-07T19:33:58.318Z,19.80
2022-08-07T19:37:09.980Z,19.80
2022-08-07T19:40:30.813Z,19.70
2022-08-07T19:43:50.224Z,19.60
2022-08-07T19:47:07.584Z,19.60
2022-08-07T19:50:44.393Z,19.50
2022-08-07T19:54:34.052Z,19.50
2022-08-07T19:58:00.479Z,19.40
2022-08-07T20:00:29.653Z,19.40
2022-08-07T20:03:34.619Z,19.40
2022-08-07T20:06:42.807Z,19.40
2022-08-07T20:10:38.144Z,19.40
2022-08-07T20:13:23.027Z,19.30
2022-08-07T20:16:35.520Z,19.20
2022-08-07T20:19:49.365Z,19.20
2022-08-07T20:23:23.264Z,19.20
2022-08-07T20:26:44.994Z,19.10
2022-08-07T20:29:58.452Z,19.10
2022-08-07T20:33:04.643Z,19.10
2022-08-07T20:36:17.026Z,19.10
2022-08-07T20:40:01.275Z,19.10
2022-08-07T20:42:56.614Z,19.10
2022-08-07T20:46:28.787Z,19.20
2022-08-07T20:49:59.905Z,19.10
2022-08-07T20:52:51.080Z,19.10
2022-08-07T20:55:58.133Z,19.10
2022-08-07T20:59:05.275Z,19.00
2022-08-07T21:02:39.102Z,19.00
2022-08-07T21:05:54.419Z,19.00
2022-08-07T21:09:14.227Z,18.90
2022-08-07T21:12:25.675Z,18.90
2022-08-07T21:15:47.682Z,18.90
2022-08-07T21:18:59.607Z,18.80
2022-08-07T21:22:06.068Z,18.70
2022-08-07T21:25:20.829Z,18.70
2022-08-07T21:28:49.555Z,18.60
2022-08-07T21:32:42.914Z,18.60
2022-08-07T21:36:04.251Z,18.60
2022-08-07T21:39:47.236Z,18.50
2022-08-07T21:43:22.997Z,18.50
2022-08-07T21:46:34.909Z,18.40
2022-08-07T21:50:02.730Z,18.50
2022-08-07T21:53:37.060Z,18.40
2022-08-07T21:57:04.540Z,18.50
2022-08-07T22:00:22.241Z,18.40
2022-08-07T22:03:46.141Z,18.40
2022-08-07T22:07:16.101Z,18.30
2022-08-07T22:10:22.224Z,18.30
2022-08-07T22:13:50.430Z,18.30
2022-08-07T22:16:59.934Z,18.20
2022-08-07T22:20:32.616Z,18.30
2022-08-07T22:23:56.909Z,18.20
2022-08-07T22:27:03.953Z,18.10
2022-08-07T22:30:27.260Z,18.10
2022-08-07T22:33:52.750Z,18.10
2022-08-07T22:37:14.225Z,18.10
2022-08-07T22:40:28.534Z,18.10
2022-08-07T22:43:49.505Z,18.00
2022-08-07T22:47:04.031Z,18.00
2022-08-07T22:50:13.459Z,18.00
2022-08-07T22:54:07.501Z,17.90
2022-08-07T22:57:26.568Z,17.80
2022-08-07T23:00:36.389Z,17.80
2022-08-07T23:04:00.066Z,17.80
2022-08-07T23:07:05.152Z,17.70
2022-08-07T23:11:10.374Z,17.60
2022-08-07T23:14:59.891Z,17.60
2022-08-07T23:18:20.143Z,17.50
2022-08-07T23:21:36.848Z,17.50
2022-08-07T23:25:02.618Z,17.40
2022-08-07T23:28:29.015Z,17.40
2022-08-07T23:32:49.255Z,17.40
2022-08-07T23:35:13.445Z,17.30
2022-08-07T23:38:56.981Z,17.30
2022-08-07T23:42:37.553Z,17.30
2022-08-07T23:46:03.454Z,17.20
2022-08-07T23:49:50.405Z,17.20
2022-08-07T23:53:17.462Z,17.20
2022-08-07T23:56:59.275Z,17.20
